createdAt,value
2018-08-18T07:31:10.715Z,20.50
2018-08-18T07:33:38.236Z,20.20
2018-08-18T07:36:05.749Z,20.20
2018-08-18T07:38:33.289Z,20.20
2018-08-18T07:41:00.809Z,20.30
2018-08-18T07:43:35.816Z,20.40
2018-08-18T07:46:04.965Z,20.50
2018-08-18T07:48:32.499Z,20.60
2018-08-18T07:51:00.036Z,20.60
2018-08-18T07:53:27.623Z,20.40
2018-08-18T07:55:55.110Z,20.60
2018-08-18T07:58:26.673Z,20.70
2018-08-18T08:00:56.741Z,20.80
2018-08-18T08:03:24.315Z,20.70
2018-08-18T08:05:51.917Z,20.90
2018-08-18T08:08:19.430Z,20.90
2018-08-18T08:10:46.945Z,20.90
2018-08-18T08:13:15.161Z,21.00
2018-08-18T08:15:42.712Z,21.00
2018-08-18T08:18:11.143Z,21.20
2018-08-18T08:20:38.653Z,21.20
2018-08-18T08:23:06.181Z,21.40
2018-08-18T08:25:33.701Z,21.50
2018-08-18T08:28:01.241Z,21.40
2018-08-18T08:30:28.757Z,21.40
2018-08-18T08:32:56.270Z,21.50
2018-08-18T08:35:23.817Z,21.50
2018-08-18T08:37:51.761Z,21.60
2018-08-18T08:40:20.007Z,21.70
2018-08-18T08:42:47.588Z,21.70
2018-08-18T08:45:16.180Z,21.80
2018-08-18T08:47:44.172Z,21.80
2018-08-18T08:50:12.345Z,21.80
2018-08-18T08:52:45.445Z,21.90
2018-08-18T08:55:13.008Z,21.90
2018-08-18T08:57:40.517Z,22.10
2018-08-18T09:00:08.433Z,22.00
2018-08-18T09:02:35.961Z,22.10
2018-08-18T09:05:03.650Z,22.00
2018-08-18T09:07:31.418Z,21.70
2018-08-18T09:09:58.954Z,21.40
2018-08-18T09:12:26.472Z,21.20
2018-08-18T09:14:54.017Z,21.20
2018-08-18T12:58:30.425Z,21.70
2018-08-18T13:00:57.899Z,21.80
2018-08-18T13:03:25.425Z,21.80
2018-08-18T13:05:52.945Z,21.80
2018-08-18T13:08:20.493Z,21.90
2018-08-18T13:10:48.023Z,21.90
2018-08-18T13:13:15.537Z,22.00
2018-08-18T13:15:43.045Z,22.00
2018-08-18T13:18:10.569Z,22.00
2018-08-18T13:20:38.134Z,21.90
2018-08-18T13:23:05.649Z,22.00
2018-08-18T13:25:33.217Z,22.00
2018-08-18T13:28:02.113Z,22.10
2018-08-18T13:30:29.658Z,22.20
2018-08-18T13:32:58.221Z,22.20
2018-08-18T13:35:25.762Z,22.50
2018-08-18T13:37:53.762Z,22.60
2018-08-18T13:40:22.364Z,22.40
2018-08-18T18:07:35.090Z,21.80
2018-08-18T18:10:02.601Z,21.70
2018-08-18T18:12:31.464Z,21.80
2018-08-18T18:14:58.928Z,21.80
2018-08-18T18:17:26.737Z,21.80
2018-08-18T18:19:56.845Z,21.70
2018-08-18T18:22:24.395Z,21.70
2018-08-18T18:24:51.916Z,21.70
2018-08-18T18:27:19.512Z,21.70
2018-08-18T18:29:47.024Z,21.60
2018-08-18T18:32:14.532Z,21.60
2018-08-18T18:34:42.129Z,21.60
2018-08-18T18:37:09.740Z,21.50
2018-08-18T18:39:54.641Z,21.50
2018-08-18T18:42:22.404Z,21.50
2018-08-18T18:44:49.941Z,21.40
2018-08-18T18:47:17.489Z,21.40
2018-08-18T18:49:45.005Z,21.40
2018-08-18T18:52:12.976Z,21.30
2018-08-18T18:54:40.539Z,21.30
2018-08-18T18:57:08.064Z,21.20
2018-08-18T18:59:36.985Z,21.20
2018-08-18T19:02:04.545Z,21.10
2018-08-18T19:04:32.065Z,21.00
2018-08-18T19:07:01.778Z,21.00
2018-08-18T19:09:29.292Z,20.90
2018-08-18T19:11:56.834Z,21.10
2018-08-18T19:14:24.359Z,21.10
2018-08-18T19:16:51.896Z,21.10
2018-08-18T19:19:20.393Z,21.20
2018-08-18T19:21:47.945Z,21.20
2018-08-18T19:24:19.766Z,21.10
2018-08-18T19:26:48.177Z,21.00
2018-08-18T19:29:15.949Z,20.90
